createdAt,value
2022-10-25T00:00:01.208Z,98264.00
2022-10-25T00:00:11.345Z,98266.00
2022-10-25T00:00:21.346Z,98266.00
2022-10-25T00:00:31.344Z,98264.00
2022-10-25T00:00:41.721Z,98264.00
2022-10-25T00:00:51.839Z,98262.00
2022-10-25T00:01:02.019Z,98262.00
2022-10-25T00:01:12.176Z,98262.00
2022-10-25T00:01:22.285Z,98264.00
2022-10-25T00:01:32.435Z,98262.00
2022-10-25T00:01:42.781Z,98264.00
2022-10-25T00:01:52.822Z,98260.00
2022-10-25T00:02:02.892Z,98262.00
2022-10-25T00:02:12.990Z,98264.00
2022-10-25T00:02:22.963Z,98264.00
2022-10-25T00:02:33.002Z,98262.00
2022-10-25T00:02:43.094Z,98258.00
2022-10-25T00:02:53.105Z,98262.00
2022-10-25T00:03:03.224Z,98260.00
2022-10-25T00:03:13.340Z,98260.00
2022-10-25T00:03:23.483Z,98260.00
2022-10-25T00:03:33.478Z,98260.00
2022-10-25T00:03:43.478Z,98258.00
2022-10-25T00:03:53.474Z,98260.00
2022-10-25T00:04:03.597Z,98260.00
2022-10-25T00:04:13.676Z,98262.00
2022-10-25T00:04:23.693Z,98258.00
2022-10-25T00:04:33.698Z,98260.00
2022-10-25T00:04:43.696Z,98256.00
2022-10-25T00:04:53.695Z,98258.00
2022-10-25T00:05:03.945Z,98260.00
2022-10-25T00:05:13.943Z,98258.00
2022-10-25T00:05:24.061Z,98260.00
2022-10-25T00:05:34.321Z,98258.00
2022-10-25T00:05:44.438Z,98260.00
2022-10-25T00:05:54.555Z,98260.00
2022-10-25T00:06:04.682Z,98260.00
2022-10-25T00:06:14.800Z,98260.00
2022-10-25T00:06:24.936Z,98260.00
2022-10-25T00:06:35.058Z,98258.00
2022-10-25T00:06:45.184Z,98260.00
2022-10-25T00:06:55.171Z,98258.00
2022-10-25T00:07:05.439Z,98258.00
2022-10-25T00:07:15.431Z,98260.00
2022-10-25T00:07:25.554Z,98260.00
2022-10-25T00:07:35.809Z,98258.00
2022-10-25T00:07:46.006Z,98258.00
2022-10-25T00:07:55.874Z,98256.00
2022-10-25T00:08:05.872Z,98260.00
2022-10-25T00:08:15.992Z,98258.00
2022-10-25T00:08:26.110Z,98258.00
2022-10-25T00:08:36.108Z,98258.00
2022-10-25T00:08:46.231Z,98258.00
2022-10-25T00:08:56.351Z,98262.00
2022-10-25T00:09:06.486Z,98262.00
2022-10-25T00:09:16.480Z,98262.00
2022-10-25T00:09:26.606Z,98264.00
2022-10-25T00:09:36.596Z,98260.00
2022-10-25T00:09:46.725Z,98258.00
2022-10-25T00:09:56.723Z,98260.00
2022-10-25T00:10:06.726Z,98262.00
2022-10-25T00:10:17.733Z,98260.00
2022-10-25T00:10:27.020Z,98258.00
2022-10-25T00:10:37.017Z,98258.00
2022-10-25T00:10:47.422Z,98260.00
2022-10-25T00:10:57.394Z,98258.00
2022-10-25T00:11:07.515Z,98260.00
2022-10-25T00:11:17.761Z,98262.00
2022-10-25T00:11:27.883Z,98258.00
2022-10-25T00:11:37.879Z,98262.00
2022-10-25T00:11:48.128Z,98256.00
2022-10-25T00:11:58.245Z,98258.00
2022-10-25T00:12:08.364Z,98258.00
2022-10-25T00:12:18.490Z,98258.00
2022-10-25T00:12:28.552Z,98260.00
2022-10-25T00:12:48.645Z,98260.00
2022-10-25T00:12:58.652Z,98260.00
2022-10-25T00:13:08.776Z,98258.00
2022-10-25T00:13:18.777Z,98258.00
2022-10-25T00:13:28.901Z,98258.00
2022-10-25T00:13:38.901Z,98258.00
2022-10-25T00:13:49.020Z,98256.00
2022-10-25T00:13:59.140Z,98256.00
2022-10-25T00:14:09.259Z,98260.00
2022-10-25T00:14:19.378Z,98258.00
2022-10-25T00:14:29.505Z,98260.00
2022-10-25T00:14:39.501Z,98256.00
2022-10-25T00:14:49.615Z,98258.00
2022-10-25T00:14:59.745Z,98256.00
2022-10-25T00:15:09.863Z,98256.00
2022-10-25T00:15:19.864Z,98258.00
2022-10-25T00:15:30.113Z,98256.00
2022-10-25T00:15:40.230Z,98256.00
2022-10-25T00:15:50.348Z,98258.00
2022-10-25T00:16:00.479Z,98256.00
2022-10-25T00:16:10.601Z,98256.00
2022-10-25T00:16:20.611Z,98256.00
2022-10-25T00:16:30.867Z,98256.00
2022-10-25T00:16:40.866Z,98254.00
2022-10-25T00:16:50.990Z,98256.00
2022-10-25T00:17:01.229Z,98254.00
2022-10-25T00:17:11.220Z,98256.00
2022-10-25T00:17:21.337Z,98254.00
2022-10-25T00:17:31.585Z,98256.00
2022-10-25T00:17:41.700Z,98260.00
2022-10-25T00:17:51.843Z,98258.00
2022-10-25T00:18:01.941Z,98256.00
2022-10-25T00:18:12.057Z,98256.00
2022-10-25T00:18:22.058Z,98256.00
2022-10-25T00:18:32.311Z,98256.00
2022-10-25T00:18:42.432Z,98254.00
2022-10-25T00:18:52.429Z,98256.00
2022-10-25T00:19:02.682Z,98256.00
2022-10-25T00:19:12.798Z,98256.00
2022-10-25T00:19:22.922Z,98254.00
2022-10-25T00:19:33.051Z,98252.00
2022-10-25T00:19:43.171Z,98254.00
2022-10-25T00:19:53.286Z,98254.00
2022-10-25T00:20:03.414Z,98252.00
2022-10-25T00:20:13.540Z,98254.00
2022-10-25T00:20:23.528Z,98254.00
2022-10-25T00:20:33.789Z,98256.00
2022-10-25T00:20:43.780Z,98254.00
2022-10-25T00:20:53.982Z,98254.00
2022-10-25T00:21:04.132Z,98256.00
2022-10-25T00:21:14.247Z,98254.00
2022-10-25T00:21:24.363Z,98254.00
2022-10-25T00:21:34.483Z,98256.00
2022-10-25T00:21:44.600Z,98254.00
2022-10-25T00:21:54.727Z,98256.00
2022-10-25T00:22:04.851Z,98256.00
2022-10-25T00:22:14.980Z,98256.00
2022-10-25T00:22:25.097Z,98256.00
2022-10-25T00:22:35.220Z,98256.00
2022-10-25T00:22:45.692Z,98258.00
2022-10-25T00:22:55.419Z,98256.00
2022-10-25T00:23:05.672Z,98256.00
2022-10-25T00:23:15.667Z,98258.00
2022-10-25T00:23:25.670Z,98256.00
2022-10-25T00:23:36.045Z,98258.00
2022-10-25T00:23:46.166Z,98256.00
2022-10-25T00:23:56.175Z,98256.00
2022-10-25T00:24:06.430Z,98256.00
2022-10-25T00:24:16.541Z,98256.00
2022-10-25T00:24:26.680Z,98258.00
2022-10-25T00:24:36.788Z,98260.00
2022-10-25T00:24:46.911Z,98258.00
2022-10-25T00:24:57.029Z,98258.00
2022-10-25T00:25:07.150Z,98258.00
2022-10-25T00:25:17.269Z,98262.00
2022-10-25T00:25:27.386Z,98258.00
2022-10-25T00:25:37.516Z,98258.00
2022-10-25T00:25:47.632Z,98256.00
2022-10-25T00:25:57.640Z,98260.00
2022-10-25T00:26:07.890Z,98260.00
2022-10-25T00:26:17.884Z,98260.00
2022-10-25T00:26:28.004Z,98260.00
2022-10-25T00:26:38.255Z,98260.00
2022-10-25T00:26:48.372Z,98260.00
2022-10-25T00:26:58.486Z,98260.00
2022-10-25T00:27:08.611Z,98262.00
2022-10-25T00:27:18.726Z,98262.00
2022-10-25T00:27:28.847Z,98262.00
2022-10-25T00:27:38.974Z,98260.00
2022-10-25T00:27:49.108Z,98262.00
2022-10-25T00:27:59.109Z,98266.00
2022-10-25T00:28:09.376Z,98264.00
2022-10-25T00:28:19.363Z,98264.00
2022-10-25T00:28:29.483Z,98268.00
2022-10-25T00:28:39.795Z,98268.00
2022-10-25T00:28:49.913Z,98266.00
2022-10-25T00:28:59.918Z,98268.00
2022-10-25T00:29:10.231Z,98268.00
2022-10-25T00:29:20.245Z,98266.00
2022-10-25T00:29:30.280Z,98264.00
2022-10-25T00:29:40.268Z,98268.00
2022-10-25T00:29:50.390Z,98266.00
2022-10-25T00:30:00.506Z,98266.00
2022-10-25T00:30:10.637Z,98268.00
2022-10-25T00:30:20.654Z,98270.00
2022-10-25T00:30:30.653Z,98270.00
2022-10-25T00:30:40.766Z,98266.00
2022-10-25T00:30:50.890Z,98268.00
2022-10-25T00:31:01.020Z,98268.00
2022-10-25T00:31:11.014Z,98268.00
2022-10-25T00:31:21.007Z,98270.00
2022-10-25T00:31:31.148Z,98270.00
2022-10-25T00:31:41.138Z,98270.00
2022-10-25T00:31:51.387Z,98268.00
2022-10-25T00:32:01.504Z,98270.00
2022-10-25T00:32:11.628Z,98270.00
2022-10-25T00:32:21.754Z,98270.00
2022-10-25T00:32:31.869Z,98270.00
2022-10-25T00:32:41.877Z,98270.00
2022-10-25T00:32:52.125Z,98270.00
2022-10-25T00:33:02.267Z,98268.00
2022-10-25T00:33:12.371Z,98270.00
2022-10-25T00:33:22.499Z,98268.00
2022-10-25T00:33:32.616Z,98270.00
2022-10-25T00:33:42.613Z,98268.00
2022-10-25T00:33:52.868Z,98268.00
2022-10-25T00:34:02.978Z,98268.00
2022-10-25T00:34:13.094Z,98268.00
2022-10-25T00:34:23.231Z,98268.00
2022-10-25T00:34:33.348Z,98270.00
2022-10-25T00:34:43.465Z,98268.00
2022-10-25T00:34:53.589Z,98272.00
2022-10-25T00:35:03.590Z,98270.00
2022-10-25T00:35:13.586Z,98268.00
2022-10-25T00:35:23.963Z,98268.00
2022-10-25T00:35:34.080Z,98268.00
2022-10-25T00:35:44.078Z,98270.00
2022-10-25T00:35:54.329Z,98270.00
2022-10-25T00:36:04.446Z,98270.00
2022-10-25T00:36:14.584Z,98266.00
2022-10-25T00:36:24.711Z,98272.00
2022-10-25T00:36:34.820Z,98272.00
2022-10-25T00:36:44.937Z,98270.00
2022-10-25T00:36:55.066Z,98270.00
2022-10-25T00:37:05.180Z,98270.00
2022-10-25T00:37:15.305Z,98270.00
2022-10-25T00:37:25.420Z,98270.00
2022-10-25T00:37:35.582Z,98274.00
2022-10-25T00:37:45.568Z,98274.00
2022-10-25T00:37:55.824Z,98274.00
2022-10-25T00:38:05.819Z,98274.00
2022-10-25T00:38:15.943Z,98274.00
2022-10-25T00:38:26.192Z,98274.00
2022-10-25T00:38:36.312Z,98276.00
2022-10-25T00:38:46.450Z,98272.00
2022-10-25T00:38:56.571Z,98274.00
2022-10-25T00:39:06.563Z,98274.00
2022-10-25T00:39:16.682Z,98274.00
2022-10-25T00:39:26.940Z,98274.00
2022-10-25T00:39:37.058Z,98276.00
2022-10-25T00:39:47.060Z,98274.00
2022-10-25T00:39:57.307Z,98274.00
2022-10-25T00:40:07.434Z,98274.00
2022-10-25T00:40:17.432Z,98274.00
2022-10-25T00:40:27.747Z,98276.00
2022-10-25T00:40:37.744Z,98276.00
2022-10-25T00:40:47.862Z,98276.00
2022-10-25T00:40:58.109Z,98274.00
2022-10-25T00:41:08.228Z,98276.00
2022-10-25T00:41:18.350Z,98274.00
2022-10-25T00:41:28.480Z,98274.00
2022-10-25T00:41:38.477Z,98272.00
2022-10-25T00:41:48.476Z,98276.00
2022-10-25T00:41:58.853Z,98276.00
2022-10-25T00:42:08.968Z,98274.00
2022-10-25T00:42:19.089Z,98274.00
2022-10-25T00:42:29.208Z,98272.00
2022-10-25T00:42:39.325Z,98272.00
2022-10-25T00:42:49.558Z,98270.00
2022-10-25T00:42:59.618Z,98270.00
2022-10-25T00:43:09.735Z,98270.00
2022-10-25T00:43:19.853Z,98270.00
2022-10-25T00:43:29.976Z,98270.00
2022-10-25T00:43:40.091Z,98272.00
2022-10-25T00:43:50.210Z,98270.00
2022-10-25T00:44:00.330Z,98270.00
2022-10-25T00:44:10.446Z,98266.00
2022-10-25T00:44:20.579Z,98268.00
2022-10-25T00:44:30.698Z,98264.00
2022-10-25T00:44:40.818Z,98266.00
2022-10-25T00:44:50.813Z,98264.00
2022-10-25T00:45:01.064Z,98264.00
2022-10-25T00:45:11.182Z,98266.00
2022-10-25T00:45:21.297Z,98264.00
2022-10-25T00:45:31.417Z,98264.00
2022-10-25T00:45:41.538Z,98264.00
2022-10-25T00:45:51.718Z,98264.00
2022-10-25T00:46:11.883Z,98264.00
2022-10-25T00:46:21.880Z,98264.00
2022-10-25T00:46:32.258Z,98266.00
2022-10-25T00:46:42.374Z,98266.00
2022-10-25T00:46:52.370Z,98268.00
2022-10-25T00:47:02.623Z,98262.00
2022-10-25T00:47:12.734Z,98264.00
2022-10-25T00:47:22.854Z,98266.00
2022-10-25T00:47:32.992Z,98266.00
2022-10-25T00:47:42.999Z,98266.00
2022-10-25T00:47:53.123Z,98264.00
2022-10-25T00:48:03.372Z,98264.00
2022-10-25T00:48:13.517Z,98264.00
2022-10-25T00:48:23.608Z,98264.00
2022-10-25T00:48:33.738Z,98264.00
2022-10-25T00:48:43.862Z,98264.00
2022-10-25T00:48:53.853Z,98264.00
2022-10-25T00:49:04.102Z,98262.00
2022-10-25T00:49:14.223Z,98262.00
2022-10-25T00:49:24.342Z,98262.00
2022-10-25T00:49:34.464Z,98262.00
2022-10-25T00:49:44.586Z,98264.00
2022-10-25T00:49:54.698Z,98262.00
2022-10-25T00:50:04.821Z,98260.00
2022-10-25T00:50:14.816Z,98262.00
2022-10-25T00:50:24.937Z,98262.00
2022-10-25T00:50:35.197Z,98262.00
2022-10-25T00:50:45.314Z,98260.00
2022-10-25T00:50:55.430Z,98262.00
2022-10-25T00:51:05.565Z,98262.00
2022-10-25T00:51:15.558Z,98262.00
2022-10-25T00:51:25.674Z,98262.00
2022-10-25T00:51:35.922Z,98262.00
2022-10-25T00:51:46.037Z,98260.00
2022-10-25T00:51:56.036Z,98260.00
2022-10-25T00:52:06.298Z,98260.00
2022-10-25T00:52:16.304Z,98258.00
2022-10-25T00:52:26.423Z,98258.00
2022-10-25T00:52:36.674Z,98260.00
2022-10-25T00:52:46.675Z,98262.00
2022-10-25T00:52:56.801Z,98262.00
2022-10-25T00:53:07.049Z,98260.00
2022-10-25T00:53:17.167Z,98260.00
2022-10-25T00:53:27.298Z,98258.00
2022-10-25T00:53:37.429Z,98258.00
2022-10-25T00:53:47.546Z,98258.00
2022-10-25T00:53:57.667Z,98258.00
2022-10-25T00:54:07.791Z,98258.00
2022-10-25T00:54:17.868Z,98260.00
2022-10-25T00:54:27.857Z,98260.00
2022-10-25T00:54:38.230Z,98256.00
2022-10-25T00:54:48.350Z,98258.00
2022-10-25T00:54:58.348Z,98260.00
2022-10-25T00:55:08.596Z,98260.00
2022-10-25T00:55:18.721Z,98260.00
2022-10-25T00:55:28.845Z,98258.00
2022-10-25T00:55:38.969Z,98258.00
2022-10-25T00:55:49.086Z,98256.00
2022-10-25T00:55:59.201Z,98256.00
2022-10-25T00:56:09.321Z,98258.00
2022-10-25T00:56:19.445Z,98258.00
2022-10-25T00:56:29.565Z,98256.00
2022-10-25T00:56:39.689Z,98258.00
2022-10-25T00:56:49.812Z,98256.00
2022-10-25T00:56:59.814Z,98256.00
2022-10-25T00:57:10.063Z,98256.00
2022-10-25T00:57:20.095Z,98254.00
2022-10-25T00:57:30.064Z,98254.00
2022-10-25T00:57:40.443Z,98254.00
2022-10-25T00:57:50.567Z,98256.00
2022-10-25T00:58:00.565Z,98254.00
2022-10-25T00:58:10.817Z,98254.00
2022-10-25T00:58:20.815Z,98256.00
2022-10-25T00:58:30.947Z,98256.00
2022-10-25T00:58:41.211Z,98256.00
2022-10-25T00:58:51.331Z,98256.00
2022-10-25T00:59:01.446Z,98256.00
2022-10-25T00:59:11.570Z,98254.00
2022-10-25T00:59:21.687Z,98254.00
2022-10-25T00:59:31.809Z,98254.00
2022-10-25T00:59:41.940Z,98256.00
2022-10-25T00:59:52.062Z,98258.00
2022-10-25T01:00:02.060Z,98256.00
2022-10-25T01:00:12.314Z,98256.00
2022-10-25T01:00:22.348Z,98256.00
2022-10-25T01:00:32.311Z,98256.00
2022-10-25T01:00:42.685Z,98254.00
2022-10-25T01:00:52.804Z,98254.00
2022-10-25T01:01:02.820Z,98256.00
2022-10-25T01:01:13.093Z,98256.00
2022-10-25T01:01:23.196Z,98256.00
2022-10-25T01:01:33.278Z,98256.00
2022-10-25T01:01:43.354Z,98256.00
2022-10-25T01:01:53.346Z,98256.00
2022-10-25T01:02:03.597Z,98260.00
2022-10-25T01:02:13.517Z,98256.00
2022-10-25T01:02:23.570Z,98260.00
2022-10-25T01:02:33.659Z,98260.00
2022-10-25T01:02:43.721Z,98260.00
2022-10-25T01:02:53.964Z,98262.00
2022-10-25T01:03:04.016Z,98258.00
2022-10-25T01:03:14.010Z,98262.00
2022-10-25T01:03:24.299Z,98262.00
2022-10-25T01:03:34.259Z,98262.00
2022-10-25T01:03:44.381Z,98264.00
2022-10-25T01:03:54.638Z,98258.00
2022-10-25T01:04:04.758Z,98258.00
2022-10-25T01:04:14.875Z,98260.00
2022-10-25T01:04:24.996Z,98260.00
2022-10-25T01:04:35.111Z,98260.00
2022-10-25T01:04:45.237Z,98258.00
2022-10-25T01:04:55.356Z,98260.00
2022-10-25T01:05:05.480Z,98260.00
2022-10-25T01:05:15.480Z,98260.00
2022-10-25T01:05:25.733Z,98258.00
2022-10-25T01:05:35.733Z,98258.00
2022-10-25T01:05:45.848Z,98260.00
2022-10-25T01:05:56.095Z,98258.00
2022-10-25T01:06:06.211Z,98258.00
2022-10-25T01:06:16.327Z,98258.00
2022-10-25T01:06:26.463Z,98256.00
2022-10-25T01:06:36.565Z,98258.00
2022-10-25T01:06:46.691Z,98258.00
2022-10-25T01:06:56.804Z,98260.00
2022-10-25T01:07:06.923Z,98258.00
2022-10-25T01:07:17.039Z,98258.00
2022-10-25T01:07:27.169Z,98258.00
2022-10-25T01:07:37.295Z,98258.00
2022-10-25T01:07:47.754Z,98258.00
2022-10-25T01:07:57.527Z,98258.00
2022-10-25T01:08:07.648Z,98256.00
2022-10-25T01:08:17.764Z,98258.00
2022-10-25T01:08:27.891Z,98258.00
2022-10-25T01:08:37.901Z,98258.00
2022-10-25T01:08:48.020Z,98258.00
2022-10-25T01:08:58.266Z,98260.00
2022-10-25T01:09:08.388Z,98258.00
2022-10-25T01:09:18.389Z,98258.00
2022-10-25T01:09:28.657Z,98260.00
2022-10-25T01:09:38.643Z,98256.00
2022-10-25T01:09:48.770Z,98256.00
2022-10-25T01:09:59.023Z,98258.00
2022-10-25T01:10:09.142Z,98256.00
2022-10-25T01:10:19.140Z,98256.00
2022-10-25T01:10:29.389Z,98256.00
2022-10-25T01:10:39.518Z,98258.00
2022-10-25T01:10:49.514Z,98256.00
2022-10-25T01:10:59.770Z,98256.00
2022-10-25T01:11:09.931Z,98260.00
2022-10-25T01:11:19.927Z,98256.00
2022-10-25T01:11:30.170Z,98258.00
2022-10-25T01:11:40.167Z,98256.00
2022-10-25T01:11:50.281Z,98260.00
2022-10-25T01:12:00.541Z,98258.00
2022-10-25T01:12:10.541Z,98260.00
2022-10-25T01:12:20.665Z,98258.00
2022-10-25T01:12:30.916Z,98258.00
2022-10-25T01:12:40.917Z,98258.00
2022-10-25T01:12:52.183Z,98258.00
2022-10-25T01:13:01.112Z,98258.00
2022-10-25T01:13:11.235Z,98260.00
2022-10-25T01:13:21.356Z,98258.00
2022-10-25T01:13:31.466Z,98258.00
2022-10-25T01:13:41.596Z,98258.00
2022-10-25T01:13:51.722Z,98258.00
2022-10-25T01:14:01.836Z,98256.00
2022-10-25T01:14:11.967Z,98256.00
2022-10-25T01:14:22.084Z,98258.00
2022-10-25T01:14:32.203Z,98254.00
2022-10-25T01:14:42.324Z,98258.00
2022-10-25T01:14:52.438Z,98256.00
2022-10-25T01:15:02.557Z,98256.00
2022-10-25T01:15:12.681Z,98256.00
2022-10-25T01:15:22.707Z,98254.00
2022-10-25T01:15:32.814Z,98256.00
2022-10-25T01:15:43.061Z,98254.00
2022-10-25T01:15:53.067Z,98256.00
2022-10-25T01:16:03.057Z,98252.00
2022-10-25T01:16:13.431Z,98252.00
2022-10-25T01:16:23.554Z,98251.00
2022-10-25T01:16:33.668Z,98251.00
2022-10-25T01:16:43.801Z,98251.00
2022-10-25T01:16:53.919Z,98251.00
2022-10-25T01:17:03.917Z,98251.00
2022-10-25T01:17:14.165Z,98252.00
2022-10-25T01:17:24.171Z,98251.00
2022-10-25T01:17:34.283Z,98251.00
2022-10-25T01:17:44.538Z,98252.00
2022-10-25T01:17:54.657Z,98252.00
2022-10-25T01:18:04.772Z,98252.00
2022-10-25T01:18:14.893Z,98251.00
2022-10-25T01:18:25.016Z,98252.00
2022-10-25T01:18:35.155Z,98251.00
2022-10-25T01:18:45.253Z,98254.00
2022-10-25T01:18:55.373Z,98251.00
2022-10-25T01:19:05.485Z,98252.00
2022-10-25T01:19:15.614Z,98251.00
2022-10-25T01:19:25.814Z,98252.00
2022-10-25T01:19:35.844Z,98251.00
2022-10-25T01:19:45.958Z,98249.00
2022-10-25T01:19:55.959Z,98249.00
2022-10-25T01:20:05.959Z,98249.00
2022-10-25T01:20:16.331Z,98251.00
2022-10-25T01:20:26.445Z,98247.00
2022-10-25T01:20:36.564Z,98249.00
2022-10-25T01:20:46.783Z,98251.00
2022-10-25T01:20:56.775Z,98249.00
2022-10-25T01:21:06.771Z,98251.00
2022-10-25T01:21:17.147Z,98247.00
2022-10-25T01:21:27.144Z,98249.00
2022-10-25T01:21:37.262Z,98249.00
2022-10-25T01:21:47.528Z,98249.00
2022-10-25T01:21:57.512Z,98249.00
2022-10-25T01:22:07.628Z,98249.00
2022-10-25T01:22:17.878Z,98251.00
2022-10-25T01:22:27.875Z,98247.00
2022-10-25T01:22:37.997Z,98247.00
2022-10-25T01:22:48.439Z,98249.00
2022-10-25T01:22:58.304Z,98247.00
2022-10-25T01:23:08.423Z,98249.00
2022-10-25T01:23:18.672Z,98247.00
2022-10-25T01:23:28.671Z,98249.00
2022-10-25T01:23:38.787Z,98247.00
2022-10-25T01:23:49.043Z,98249.00
2022-10-25T01:23:59.163Z,98247.00
2022-10-25T01:24:09.287Z,98247.00
2022-10-25T01:24:19.513Z,98247.00
2022-10-25T01:24:29.509Z,98247.00
2022-10-25T01:24:39.626Z,98249.00
2022-10-25T01:24:49.746Z,98249.00
2022-10-25T01:24:59.867Z,98247.00
2022-10-25T01:25:09.983Z,98249.00
2022-10-25T01:25:20.112Z,98249.00
2022-10-25T01:25:30.102Z,98247.00
2022-10-25T01:25:40.220Z,98249.00
2022-10-25T01:25:50.469Z,98247.00
2022-10-25T01:26:00.598Z,98247.00
2022-10-25T01:26:10.592Z,98247.00
2022-10-25T01:26:20.846Z,98247.00
2022-10-25T01:26:30.969Z,98245.00
2022-10-25T01:26:40.965Z,98247.00
2022-10-25T01:26:51.215Z,98245.00
2022-10-25T01:27:01.334Z,98249.00
2022-10-25T01:27:11.448Z,98247.00
2022-10-25T01:27:21.575Z,98247.00
2022-10-25T01:27:31.697Z,98249.00
2022-10-25T01:27:41.690Z,98247.00
2022-10-25T01:27:52.014Z,98249.00
2022-10-25T01:28:02.032Z,98249.00
2022-10-25T01:28:12.146Z,98245.00
2022-10-25T01:28:22.396Z,98245.00
2022-10-25T01:28:32.509Z,98245.00
2022-10-25T01:28:42.511Z,98247.00
2022-10-25T01:28:52.760Z,98245.00
2022-10-25T01:29:02.878Z,98247.00
2022-10-25T01:29:12.994Z,98245.00
2022-10-25T01:29:23.121Z,98249.00
2022-10-25T01:29:33.240Z,98245.00
2022-10-25T01:29:43.359Z,98247.00
2022-10-25T01:29:53.484Z,98245.00
2022-10-25T01:30:03.601Z,98247.00
2022-10-25T01:30:13.715Z,98245.00
2022-10-25T01:30:23.845Z,98247.00
2022-10-25T01:30:33.957Z,98247.00
2022-10-25T01:30:44.075Z,98247.00
2022-10-25T01:30:54.204Z,98249.00
2022-10-25T01:31:04.322Z,98247.00
2022-10-25T01:31:14.453Z,98243.00
2022-10-25T01:31:24.559Z,98243.00
2022-10-25T01:31:34.558Z,98245.00
2022-10-25T01:31:44.675Z,98245.00
2022-10-25T01:31:54.921Z,98243.00
2022-10-25T01:32:05.041Z,98245.00
2022-10-25T01:32:15.161Z,98243.00
2022-10-25T01:32:25.298Z,98245.00
2022-10-25T01:32:35.401Z,98247.00
2022-10-25T01:32:45.880Z,98247.00
2022-10-25T01:32:55.823Z,98247.00
2022-10-25T01:33:05.817Z,98241.00
2022-10-25T01:33:15.931Z,98243.00
2022-10-25T01:33:26.182Z,98243.00
2022-10-25T01:33:36.180Z,98243.00
2022-10-25T01:33:46.323Z,98245.00
2022-10-25T01:33:56.550Z,98243.00
2022-10-25T01:34:06.550Z,98241.00
2022-10-25T01:34:16.664Z,98245.00
2022-10-25T01:34:26.920Z,98245.00
2022-10-25T01:34:36.917Z,98245.00
2022-10-25T01:34:47.034Z,98243.00
2022-10-25T01:34:57.281Z,98243.00
2022-10-25T01:35:07.397Z,98243.00
2022-10-25T01:35:17.514Z,98239.00
2022-10-25T01:35:27.657Z,98241.00
2022-10-25T01:35:37.665Z,98243.00
2022-10-25T01:35:47.781Z,98241.00
2022-10-25T01:35:58.028Z,98239.00
2022-10-25T01:36:08.205Z,98241.00
2022-10-25T01:36:18.234Z,98239.00
2022-10-25T01:36:28.482Z,98239.00
2022-10-25T01:36:38.476Z,98241.00
2022-10-25T01:36:48.592Z,98241.00
2022-10-25T01:36:58.838Z,98237.00
2022-10-25T01:37:08.957Z,98237.00
2022-10-25T01:37:19.075Z,98239.00
2022-10-25T01:37:29.197Z,98237.00
2022-10-25T01:37:39.197Z,98239.00
2022-10-25T01:37:49.467Z,98239.00
2022-10-25T01:37:59.678Z,98237.00
2022-10-25T01:38:09.666Z,98239.00
2022-10-25T01:38:19.782Z,98229.00
2022-10-25T01:38:30.033Z,98229.00
2022-10-25T01:38:40.158Z,98229.00
2022-10-25T01:38:50.266Z,98229.00
2022-10-25T01:39:00.426Z,98229.00
2022-10-25T01:39:10.544Z,98229.00
2022-10-25T01:39:20.660Z,98229.00
2022-10-25T01:39:30.806Z,98229.00
2022-10-25T01:39:40.796Z,98229.00
2022-10-25T01:39:50.914Z,98227.00
2022-10-25T01:40:01.171Z,98229.00
2022-10-25T01:40:11.288Z,98227.00
2022-10-25T01:40:21.288Z,98229.00
2022-10-25T01:40:31.543Z,98229.00
2022-10-25T01:40:41.658Z,98227.00
2022-10-25T01:40:51.774Z,98229.00
2022-10-25T01:41:01.898Z,98225.00
2022-10-25T01:41:12.017Z,98227.00
2022-10-25T01:41:22.130Z,98225.00
2022-10-25T01:41:32.249Z,98227.00
2022-10-25T01:41:42.369Z,98227.00
2022-10-25T01:41:52.490Z,98227.00
2022-10-25T01:42:02.663Z,98227.00
2022-10-25T01:42:12.786Z,98227.00
2022-10-25T01:42:22.898Z,98227.00
2022-10-25T01:42:33.029Z,98225.00
2022-10-25T01:42:43.150Z,98227.00
2022-10-25T01:42:53.143Z,98229.00
2022-10-25T01:43:03.390Z,98225.00
2022-10-25T01:43:13.510Z,98227.00
2022-10-25T01:43:23.508Z,98227.00
2022-10-25T01:43:33.760Z,98229.00
2022-10-25T01:43:43.874Z,98227.00
2022-10-25T01:43:53.876Z,98227.00
2022-10-25T01:44:04.123Z,98229.00
2022-10-25T01:44:14.249Z,98227.00
2022-10-25T01:44:24.419Z,98229.00
2022-10-25T01:44:44.671Z,98229.00
2022-10-25T01:44:54.789Z,98229.00
2022-10-25T01:45:04.925Z,98229.00
2022-10-25T01:45:14.943Z,98227.00
2022-10-25T01:45:25.042Z,98229.00
2022-10-25T01:45:35.291Z,98229.00
2022-10-25T01:45:45.413Z,98229.00
2022-10-25T01:45:55.523Z,98229.00
2022-10-25T01:46:05.648Z,98227.00
2022-10-25T01:46:15.644Z,98229.00
2022-10-25T01:46:25.766Z,98227.00
2022-10-25T01:46:36.017Z,98227.00
2022-10-25T01:46:46.136Z,98229.00
2022-10-25T01:46:56.145Z,98227.00
2022-10-25T01:47:06.400Z,98227.00
2022-10-25T01:47:16.522Z,98227.00
2022-10-25T01:47:26.634Z,98229.00
2022-10-25T01:47:36.756Z,98229.00
2022-10-25T01:47:47.189Z,98227.00
2022-10-25T01:47:56.945Z,98227.00
2022-10-25T01:48:07.193Z,98227.00
2022-10-25T01:48:17.311Z,98227.00
2022-10-25T01:48:27.425Z,98229.00
2022-10-25T01:48:37.559Z,98229.00
2022-10-25T01:48:47.556Z,98229.00
2022-10-25T01:48:57.694Z,98229.00
2022-10-25T01:49:07.921Z,98225.00
2022-10-25T01:49:17.918Z,98223.00
2022-10-25T01:49:28.038Z,98225.00
2022-10-25T01:49:38.295Z,98225.00
2022-10-25T01:49:48.412Z,98225.00
2022-10-25T01:49:58.411Z,98225.00
2022-10-25T01:50:08.693Z,98227.00
2022-10-25T01:50:18.687Z,98225.00
2022-10-25T01:50:28.800Z,98227.00
2022-10-25T01:50:39.052Z,98225.00
2022-10-25T01:50:49.165Z,98225.00
2022-10-25T01:50:59.285Z,98227.00
2022-10-25T01:51:09.404Z,98227.00
2022-10-25T01:51:19.518Z,98227.00
2022-10-25T01:51:29.639Z,98223.00
2022-10-25T01:51:39.758Z,98225.00
2022-10-25T01:51:49.873Z,98227.00
2022-10-25T01:51:59.873Z,98225.00
2022-10-25T01:52:10.132Z,98225.00
2022-10-25T01:52:20.239Z,98225.00
2022-10-25T01:52:30.356Z,98223.00
2022-10-25T01:52:40.476Z,98225.00
2022-10-25T01:52:50.665Z,98221.00
2022-10-25T01:53:00.681Z,98225.00
2022-10-25T01:53:10.928Z,98223.00
2022-10-25T01:53:21.046Z,98223.00
2022-10-25T01:53:31.160Z,98225.00
2022-10-25T01:53:41.290Z,98225.00
2022-10-25T01:53:51.409Z,98225.00
2022-10-25T01:54:01.524Z,98225.00
2022-10-25T01:54:11.656Z,98223.00
2022-10-25T01:54:21.775Z,98225.00
2022-10-25T01:54:31.892Z,98223.00
2022-10-25T01:54:42.021Z,98223.00
2022-10-25T01:54:52.147Z,98223.00
2022-10-25T01:55:02.254Z,98223.00
2022-10-25T01:55:12.383Z,98227.00
2022-10-25T01:55:22.503Z,98225.00
2022-10-25T01:55:32.630Z,98225.00
2022-10-25T01:55:42.756Z,98227.00
2022-10-25T01:55:52.870Z,98225.00
2022-10-25T01:56:02.996Z,98223.00
2022-10-25T01:56:13.109Z,98227.00
2022-10-25T01:56:23.233Z,98225.00
2022-10-25T01:56:33.352Z,98225.00
2022-10-25T01:56:43.473Z,98225.00
2022-10-25T01:56:53.597Z,98225.00
2022-10-25T01:57:03.718Z,98225.00
2022-10-25T01:57:13.838Z,98227.00
2022-10-25T01:57:23.839Z,98227.00
2022-10-25T01:57:33.953Z,98229.00
2022-10-25T01:57:44.529Z,98227.00
2022-10-25T01:57:54.271Z,98229.00
2022-10-25T01:58:04.387Z,98229.00
2022-10-25T01:58:14.634Z,98239.00
2022-10-25T01:58:24.754Z,98237.00
2022-10-25T01:58:34.879Z,98239.00
2022-10-25T01:58:45.009Z,98239.00
2022-10-25T01:58:55.125Z,98239.00
2022-10-25T01:59:05.125Z,98239.00
2022-10-25T01:59:15.385Z,98229.00